Es ist keine erhöhte Aufmerksamkeit aufgrund des Wetters notwendig.    Es gibt keine Warnungen.
Webcam Vorhersage DWD Regenradar Wetterlage NRW Blitze Wind GFS-Modell
webcam


Kleve - Düffelward SSO more information Kleve - Düffelward SSO


Goch more information Goch


Weitere Templates dieser Seite und andere Webseiten:

Meteotemplate

Awekas - Template

weather34 - Template

Wetter im Erzgebirge


te
World Weather Websites
Bo-Rox Wetter Topsites List
 

METAR-Meldungen aus der Umgebung

   
EDLV - Goch
Aktualisierung: 19-01-2020 12:20
Klar  
Klar  
   Wind: Norden 9.3 km/h
Wind: Norden 9.3 km/h
Temperatur: 6°C
Gefühlt: 4°C
Taupunkt: 3°C
Luftfeuchte: 81%
Luftdruck: 1038 hPa
Sichtbarkeit: More than 10 km
Bewölkung: Klar
EDLV 191120Z 35005KT 300V070 CAVOK 06/03 Q1038
EDLV - Emmerich
Aktualisierung: 19-01-2020 12:20
Klar  
Klar  
   Wind: Norden 9.3 km/h
Wind: Norden 9.3 km/h
Temperatur: 6°C
Gefühlt: 4°C
Taupunkt: 3°C
Luftfeuchte: 81%
Luftdruck: 1038 hPa
Sichtbarkeit: More than 10 km
Bewölkung: Klar
EDLV 191120Z 35005KT 300V070 CAVOK 06/03 Q1038
EHDL - Nijmegen
Aktualisierung: 19-01-2020 12:25
Klar  
Klar  
   Wind: NW 11.1 km/h
Wind: NW 11.1 km/h
Temperatur: 5°C
Gefühlt: 2°C
Taupunkt: 4°C
Luftfeuchte: 93%
Luftdruck: 1039 hPa
Bewölkt: Klar
Sichtbarkeit: More than 10 km
Bewölkung: Klar
EHDL 191125Z AUTO 32006KT 260V350 9999 NCD 05/04 Q1039 BLU
EHDL - Arnhem
Aktualisierung: 19-01-2020 12:25
Klar  
Klar  
   Wind: NW 11.1 km/h
Wind: NW 11.1 km/h
Temperatur: 5°C
Gefühlt: 2°C
Taupunkt: 4°C
Luftfeuchte: 93%
Luftdruck: 1039 hPa
Bewölkt: Klar
Sichtbarkeit: More than 10 km
Bewölkung: Klar
EHDL 191125Z AUTO 32006KT 260V350 9999 NCD 05/04 Q1039 BLU
EDLV - Kalkar
Aktualisierung: 19-01-2020 12:20
Klar  
Klar  
   Wind: Norden 9.3 km/h
Wind: Norden 9.3 km/h
Temperatur: 6°C
Gefühlt: 4°C
Taupunkt: 3°C
Luftfeuchte: 81%
Luftdruck: 1038 hPa
Sichtbarkeit: More than 10 km
Bewölkung: Klar
EDLV 191120Z 35005KT 300V070 CAVOK 06/03 Q1038
 

Script entwickelt von  Saratoga-weather.org Angepasst für das Template von  Weerstation Leuven

Sie finden Wetter-Infos dieser Station auch auf:

UK Metoffice

European Weather Network

WeatherCloud

Weather Underground

Germany Weather Network

AWEKAS

Neuwetter

Wettersektor

Von uns verwendete Ausrüstung:

Wetterstation
Davis Vantage Pro2

Wetterprogramm
Meteobridge

WetterComputer
Computer

Davis Vantage Pro2

Meteobridge

Computer